Racecast

Kiana Hopkins

Big Valley TC (CA) · 13-14 · Compare head to head

Athlete rating 117.0 2014 TF season
Best race 117.0 TF
Races 42
Seasons 2 2014 — 2015

RankedNation #4559·CA #309·Team #2 ?

Rating scale ?
Speed rating — all races

Track & Field

TF speed rating

2015 TF

Big Valley TC (CA) · Grade 13-14

Date Meet Event Result Place Rating Difficulty PR/SR Flags
2015-07-12 Hampton-Phillips Track Club shot 8.04m -0.024
2015-07-12 Hampton-Phillips Track Club 200m 29.64 14th · 1st on team -0.024
2015-07-12 Hampton-Phillips Track Club 800m 2:45.66 7th · 1st on team -0.024 ★PR SR
2015-06-21 USATF Pacific Association Junior Olympic Championships discus DNS -0.031
2015-06-21 USATF Pacific Association Junior Olympic Championships 100m 14.65 43rd · 1st on team -0.031
2015-06-21 USATF Pacific Association Junior Olympic Championships 200m 30.23 42nd · 1st on team -0.031
2015-06-21 USATF Pacific Association Junior Olympic Championships 400m 1:06.7 31st · 1st on team -0.031
2015-05-09 Stockton Saints Track Club shot 6.40m -0.022
2015-05-09 Stockton Saints Track Club 400m 1:05.21 8th · 1st on team -0.022 ★PR SR
2015-05-09 Stockton Saints Track Club 200m 28.23 6th · 1st on team -0.022 ★PR SR
2015-05-09 Stockton Saints Track Club 100m 13.92 7th · 1st on team -0.022 ★PR SR
2015-04-18 CA Track Club 100m 14.22 14th · 1st on team -0.038
2015-04-18 CA Track Club 400m 1:06.22 4th · 1st on team -0.038 PR SR
2015-04-18 CA Track Club 200m 29.44 15th · 1st on team -0.038 PR SR
2015-04-11 Big Valley Track Club Invitational 100m 14.24 15th · 1st on team -0.027
2015-04-11 Big Valley Track Club Invitational 400m 1:07.54 9th · 1st on team -0.027
2015-04-04 Sacramento Speed Factory 200m 29.54 17th · 1st on team -0.033 PR SR
2015-04-04 Sacramento Speed Factory 400m 1:06.95 17th · 1st on team -0.033 PR SR
2015-03-28 Contra Costa Cheetahs 200m 30.15 27th · 1st on team -0.017 PR SR
2015-03-28 Contra Costa Cheetahs 100m 14.17 30th · 1st on team -0.017 PR SR
2015-03-21 RPM Legacy 100m 15.04 55th · 1st on team -0.020 SR
2015-03-21 RPM Legacy 400m 1:10.07 42nd · 1st on team -0.020 SR

2014 TF 117.0

Big Valley TC (CA) · Grade 13-14

Date Meet Event Result Place Rating Difficulty PR/SR Flags
2014-06-20 USATF Pacific Assoc. Junior Olympics (Top 8) 100m 15.08 55th · 1st on team -0.031
2014-06-20 USATF Pacific Assoc. Junior Olympics (Top 8) 800m 2:51.39 28th · 1st on team 117.0 -0.031 PR ★R SR RSR
2014-06-20 USATF Pacific Assoc. Junior Olympics (Top 8) 400m 1:09.89 38th · 1st on team -0.031
2014-06-20 USATF Pacific Assoc. Junior Olympics (Top 8) 200m 30.53 52nd · 1st on team -0.031 PR SR
2014-05-31 Pacific Association Championships (PAC) 400m 1:08.57 33rd · 1st on team -0.024 PR SR
2014-05-31 Pacific Association Championships (PAC) 100m 14.68 50th · 1st on team -0.024
2014-05-10 Hampton Phillips Classic TC sectional 200m 30.98 10th · 1st on team -0.033
2014-05-10 Hampton Phillips Classic TC sectional 100m 14.69 5th · 1st on team -0.033
2014-04-26 Revolution Express TC 400m 1:10.43 28th · 1st on team -0.024
2014-04-26 Revolution Express TC 200m 31.41 33rd · 1st on team -0.024
2014-04-26 Revolution Express TC 100m 14.94 33rd · 1st on team -0.024
2014-04-12 Stocton Saints 200m 30.7 22nd · 1st on team -0.027 PR SR
2014-04-12 Stocton Saints 400m 1:09.64 7th · 1st on team -0.027 PR SR
2014-04-12 Stocton Saints 100m 14.77 22nd · 1st on team -0.027
2014-04-05 Sacramento Speed Showcase 100m 14.48 37th · 1st on team -0.033 PR SR
2014-04-05 Sacramento Speed Showcase 400m 1:10.34 31st · 1st on team -0.033 PR SR
2014-04-05 Sacramento Speed Showcase 200m 31.16 30th · 1st on team -0.033 PR SR
2014-03-22 RPM lj 10-09.00 -0.012
2014-03-22 RPM 400m 1:15.84 36th · 1st on team -0.012 PR SR
2014-03-22 RPM 100m 15.24 48th · 1st on team -0.012 PR SR